sensor_id;sensor_type;location;lat;lon;timestamp;P1;durP1;ratioP1;P2;durP2;ratioP2
56173;SDS011;42058;52.308;20.924;2023-05-07T09:42:29;2.20;;;1.60;;
56173;SDS011;42058;52.308;20.924;2023-05-07T09:44:59;5.30;;;1.90;;
56173;SDS011;42058;52.308;20.924;2023-05-07T09:47:27;1.90;;;1.50;;
56173;SDS011;42058;52.308;20.924;2023-05-07T09:49:58;1.90;;;1.60;;
56173;SDS011;42058;52.308;20.924;2023-05-07T09:52:31;2.60;;;1.50;;
56173;SDS011;42058;52.308;20.924;2023-05-07T09:55:02;4.10;;;1.80;;
56173;SDS011;42058;52.308;20.924;2023-05-07T09:57:30;2.50;;;1.80;;
56173;SDS011;42058;52.308;20.924;2023-05-07T10:03:21;4.00;;;1.60;;
56173;SDS011;42058;52.308;20.924;2023-05-07T10:05:55;2.10;;;1.30;;
56173;SDS011;42058;52.308;20.924;2023-05-07T10:08:24;3.10;;;1.70;;
56173;SDS011;42058;52.308;20.924;2023-05-07T10:10:53;2.70;;;1.70;;
56173;SDS011;42058;52.308;20.924;2023-05-07T10:13:22;3.10;;;1.60;;
56173;SDS011;42058;52.308;20.924;2023-05-07T10:15:52;5.60;;;1.40;;
56173;SDS011;42058;52.308;20.924;2023-05-07T10:18:19;2.20;;;1.30;;
56173;SDS011;42058;52.308;20.924;2023-05-07T10:20:49;2.00;;;1.40;;
56173;SDS011;42058;52.308;20.924;2023-05-07T10:23:19;1.90;;;1.40;;
56173;SDS011;42058;52.308;20.924;2023-05-07T10:25:50;3.60;;;1.50;;
56173;SDS011;42058;52.308;20.924;2023-05-07T10:28:27;2.30;;;1.40;;
56173;SDS011;42058;52.308;20.924;2023-05-07T10:31:05;1.60;;;1.50;;
56173;SDS011;42058;52.308;20.924;2023-05-07T10:33:45;2.60;;;1.70;;
56173;SDS011;42058;52.308;20.924;2023-05-07T10:36:15;2.70;;;1.80;;
56173;SDS011;42058;52.308;20.924;2023-05-07T10:38:42;2.10;;;1.70;;
56173;SDS011;42058;52.308;20.924;2023-05-07T10:41:09;3.50;;;1.70;;
56173;SDS011;42058;52.308;20.924;2023-05-07T10:43:39;2.40;;;1.70;;
56173;SDS011;42058;52.308;20.924;2023-05-07T10:46:18;4.00;;;1.70;;
56173;SDS011;42058;52.308;20.924;2023-05-07T10:51:37;1.70;;;1.60;;
56173;SDS011;42058;52.308;20.924;2023-05-07T10:56:41;3.80;;;1.50;;
56173;SDS011;42058;52.308;20.924;2023-05-07T11:01:56;4.20;;;2.60;;
56173;SDS011;42058;52.308;20.924;2023-05-07T11:04:33;1.90;;;1.70;;
56173;SDS011;42058;52.308;20.924;2023-05-07T11:07:15;2.40;;;1.40;;
56173;SDS011;42058;52.308;20.924;2023-05-07T11:09:54;6.20;;;1.40;;
56173;SDS011;42058;52.308;20.924;2023-05-07T11:17:57;2.30;;;1.50;;
56173;SDS011;42058;52.308;20.924;2023-05-07T11:26:23;1.80;;;1.40;;
56173;SDS011;42058;52.308;20.924;2023-05-07T11:28:51;4.30;;;1.50;;
56173;SDS011;42058;52.308;20.924;2023-05-07T11:31:21;2.30;;;1.10;;
56173;SDS011;42058;52.308;20.924;2023-05-07T11:33:51;3.00;;;1.40;;
56173;SDS011;42058;52.308;20.924;2023-05-07T11:36:19;4.50;;;1.70;;
56173;SDS011;42058;52.308;20.924;2023-05-07T11:38:48;3.60;;;1.40;;
56173;SDS011;42058;52.308;20.924;2023-05-07T11:41:15;3.20;;;1.50;;
56173;SDS011;42058;52.308;20.924;2023-05-07T11:43:53;1.80;;;1.40;;
56173;SDS011;42058;52.308;20.924;2023-05-07T11:46:23;1.80;;;1.10;;
56173;SDS011;42058;52.308;20.924;2023-05-07T11:48:51;2.10;;;1.30;;
56173;SDS011;42058;52.308;20.924;2023-05-07T11:51:18;2.40;;;1.60;;
56173;SDS011;42058;52.308;20.924;2023-05-07T11:53:47;2.40;;;1.30;;
56173;SDS011;42058;52.308;20.924;2023-05-07T11:56:14;1.60;;;1.50;;
56173;SDS011;42058;52.308;20.924;2023-05-07T11:58:43;3.00;;;1.40;;
56173;SDS011;42058;52.308;20.924;2023-05-07T12:01:11;1.60;;;1.50;;
56173;SDS011;42058;52.308;20.924;2023-05-07T12:03:43;5.10;;;1.70;;
56173;SDS011;42058;52.308;20.924;2023-05-07T12:06:14;3.80;;;1.40;;
56173;SDS011;42058;52.308;20.924;2023-05-07T12:08:43;6.40;;;1.50;;
56173;SDS011;42058;52.308;20.924;2023-05-07T12:11:15;1.40;;;1.30;;
56173;SDS011;42058;52.308;20.924;2023-05-07T12:13:47;4.70;;;1.80;;
56173;SDS011;42058;52.308;20.924;2023-05-07T12:16:13;2.80;;;1.60;;
56173;SDS011;42058;52.308;20.924;2023-05-07T12:18:40;2.10;;;1.50;;
56173;SDS011;42058;52.308;20.924;2023-05-07T12:21:07;1.40;;;1.30;;
56173;SDS011;42058;52.308;20.924;2023-05-07T12:23:35;3.60;;;1.50;;
56173;SDS011;42058;52.308;20.924;2023-05-07T12:26:03;2.80;;;1.50;;
56173;SDS011;42058;52.308;20.924;2023-05-07T12:28:36;2.60;;;1.40;;
56173;SDS011;42058;52.308;20.924;2023-05-07T12:31:04;1.40;;;1.10;;
56173;SDS011;42058;52.308;20.924;2023-05-07T12:33:32;2.40;;;1.00;;
56173;SDS011;42058;52.308;20.924;2023-05-07T12:36:02;2.90;;;1.20;;
56173;SDS011;42058;52.308;20.924;2023-05-07T12:38:33;4.50;;;1.40;;
56173;SDS011;42058;52.308;20.924;2023-05-07T12:41:01;1.20;;;0.90;;
56173;SDS011;42058;52.308;20.924;2023-05-07T12:43:28;2.50;;;1.10;;
56173;SDS011;42058;52.308;20.924;2023-05-07T12:45:56;3.50;;;1.20;;
56173;SDS011;42058;52.308;20.924;2023-05-07T12:48:26;3.30;;;1.30;;
56173;SDS011;42058;52.308;20.924;2023-05-07T12:50:55;4.30;;;1.40;;
56173;SDS011;42058;52.308;20.924;2023-05-07T12:53:24;1.40;;;1.30;;
56173;SDS011;42058;52.308;20.924;2023-05-07T12:55:52;2.70;;;1.30;;
56173;SDS011;42058;52.308;20.924;2023-05-07T13:00:55;1.40;;;1.20;;
56173;SDS011;42058;52.308;20.924;2023-05-07T13:03:30;3.80;;;1.30;;
56173;SDS011;42058;52.308;20.924;2023-05-07T13:06:00;2.00;;;1.30;;
56173;SDS011;42058;52.308;20.924;2023-05-07T13:08:31;1.90;;;1.50;;
56173;SDS011;42058;52.308;20.924;2023-05-07T13:11:03;7.60;;;1.80;;
56173;SDS011;42058;52.308;20.924;2023-05-07T13:13:31;1.50;;;1.00;;
56173;SDS011;42058;52.308;20.924;2023-05-07T13:15:59;4.00;;;1.30;;
56173;SDS011;42058;52.308;20.924;2023-05-07T13:18:26;1.10;;;1.00;;
56173;SDS011;42058;52.308;20.924;2023-05-07T13:20:53;1.80;;;1.20;;
56173;SDS011;42058;52.308;20.924;2023-05-07T13:23:20;1.80;;;1.30;;
56173;SDS011;42058;52.308;20.924;2023-05-07T13:25:47;1.00;;;0.90;;
56173;SDS011;42058;52.308;20.924;2023-05-07T13:28:16;2.70;;;1.30;;
56173;SDS011;42058;52.308;20.924;2023-05-07T13:30:43;3.20;;;1.30;;
56173;SDS011;42058;52.308;20.924;2023-05-07T13:33:09;1.80;;;1.30;;
56173;SDS011;42058;52.308;20.924;2023-05-07T13:35:36;3.00;;;1.40;;
56173;SDS011;42058;52.308;20.924;2023-05-07T13:38:02;1.90;;;1.10;;
56173;SDS011;42058;52.308;20.924;2023-05-07T13:40:29;5.20;;;1.20;;
56173;SDS011;42058;52.308;20.924;2023-05-07T13:42:59;1.70;;;1.20;;
56173;SDS011;42058;52.308;20.924;2023-05-07T13:45:29;4.50;;;1.30;;
56173;SDS011;42058;52.308;20.924;2023-05-07T13:47:56;2.20;;;1.20;;
56173;SDS011;42058;52.308;20.924;2023-05-07T13:50:23;1.20;;;1.10;;
56173;SDS011;42058;52.308;20.924;2023-05-07T13:52:52;1.80;;;1.10;;
56173;SDS011;42058;52.308;20.924;2023-05-07T13:55:22;2.00;;;1.20;;
56173;SDS011;42058;52.308;20.924;2023-05-07T13:57:56;1.70;;;1.20;;
56173;SDS011;42058;52.308;20.924;2023-05-07T14:00:24;1.50;;;1.00;;
56173;SDS011;42058;52.308;20.924;2023-05-07T14:02:51;1.30;;;0.80;;
56173;SDS011;42058;52.308;20.924;2023-05-07T14:05:18;1.60;;;1.00;;
56173;SDS011;42058;52.308;20.924;2023-05-07T14:07:45;3.30;;;1.10;;
56173;SDS011;42058;52.308;20.924;2023-05-07T14:10:11;1.40;;;1.20;;
56173;SDS011;42058;52.308;20.924;2023-05-07T14:12:39;3.80;;;1.10;;
56173;SDS011;42058;52.308;20.924;2023-05-07T14:15:06;2.00;;;1.00;;
56173;SDS011;42058;52.308;20.924;2023-05-07T14:17:33;3.20;;;1.30;;
56173;SDS011;42058;52.308;20.924;2023-05-07T14:19:59;2.60;;;1.10;;
56173;SDS011;42058;52.308;20.924;2023-05-07T14:22:26;3.30;;;1.10;;
56173;SDS011;42058;52.308;20.924;2023-05-07T14:24:52;4.70;;;1.20;;
56173;SDS011;42058;52.308;20.924;2023-05-07T14:27:32;1.50;;;1.10;;
56173;SDS011;42058;52.308;20.924;2023-05-07T14:29:58;7.40;;;1.10;;
56173;SDS011;42058;52.308;20.924;2023-05-07T14:32:25;2.20;;;1.10;;
56173;SDS011;42058;52.308;20.924;2023-05-07T14:34:53;2.70;;;1.20;;
56173;SDS011;42058;52.308;20.924;2023-05-07T14:37:20;2.50;;;1.00;;
56173;SDS011;42058;52.308;20.924;2023-05-07T14:39:47;1.80;;;1.10;;
56173;SDS011;42058;52.308;20.924;2023-05-07T14:42:16;1.60;;;1.30;;
56173;SDS011;42058;52.308;20.924;2023-05-07T14:44:42;1.40;;;1.20;;
56173;SDS011;42058;52.308;20.924;2023-05-07T14:47:10;1.80;;;1.30;;
56173;SDS011;42058;52.308;20.924;2023-05-07T14:49:37;2.80;;;1.30;;
56173;SDS011;42058;52.308;20.924;2023-05-07T14:52:04;1.70;;;1.40;;
56173;SDS011;42058;52.308;20.924;2023-05-07T14:54:33;2.40;;;1.40;;
56173;SDS011;42058;52.308;20.924;2023-05-07T14:57:04;1.80;;;1.10;;
56173;SDS011;42058;52.308;20.924;2023-05-07T14:59:31;2.00;;;1.20;;
56173;SDS011;42058;52.308;20.924;2023-05-07T15:01:58;1.90;;;1.30;;
56173;SDS011;42058;52.308;20.924;2023-05-07T15:04:24;1.70;;;1.20;;
56173;SDS011;42058;52.308;20.924;2023-05-07T15:06:51;2.80;;;1.50;;
56173;SDS011;42058;52.308;20.924;2023-05-07T15:09:19;2.10;;;1.10;;
56173;SDS011;42058;52.308;20.924;2023-05-07T15:11:46;2.50;;;1.20;;
56173;SDS011;42058;52.308;20.924;2023-05-07T15:14:12;2.10;;;1.20;;
56173;SDS011;42058;52.308;20.924;2023-05-07T15:16:39;1.70;;;1.20;;
56173;SDS011;42058;52.308;20.924;2023-05-07T15:19:05;1.90;;;1.60;;
56173;SDS011;42058;52.308;20.924;2023-05-07T15:21:31;1.10;;;1.10;;
56173;SDS011;42058;52.308;20.924;2023-05-07T15:24:00;2.00;;;1.30;;
56173;SDS011;42058;52.308;20.924;2023-05-07T15:26:27;1.50;;;1.10;;
56173;SDS011;42058;52.308;20.924;2023-05-07T15:28:53;3.70;;;1.40;;
56173;SDS011;42058;52.308;20.924;2023-05-07T15:31:22;2.40;;;1.10;;
56173;SDS011;42058;52.308;20.924;2023-05-07T15:33:50;1.40;;;1.30;;
56173;SDS011;42058;52.308;20.924;2023-05-07T15:36:18;3.10;;;1.20;;
56173;SDS011;42058;52.308;20.924;2023-05-07T15:38:46;2.80;;;1.30;;
56173;SDS011;42058;52.308;20.924;2023-05-07T15:41:12;3.50;;;1.40;;
56173;SDS011;42058;52.308;20.924;2023-05-07T15:43:43;3.20;;;1.60;;
56173;SDS011;42058;52.308;20.924;2023-05-07T15:46:11;3.40;;;1.30;;
56173;SDS011;42058;52.308;20.924;2023-05-07T15:48:38;1.50;;;1.20;;
56173;SDS011;42058;52.308;20.924;2023-05-07T15:51:04;3.00;;;1.40;;
56173;SDS011;42058;52.308;20.924;2023-05-07T15:53:32;3.70;;;1.60;;
56173;SDS011;42058;52.308;20.924;2023-05-07T15:55:59;1.70;;;1.40;;
56173;SDS011;42058;52.308;20.924;2023-05-07T15:58:26;1.90;;;1.30;;
56173;SDS011;42058;52.308;20.924;2023-05-07T16:00:52;2.60;;;1.40;;
56173;SDS011;42058;52.308;20.924;2023-05-07T16:03:19;2.80;;;1.50;;
56173;SDS011;42058;52.308;20.924;2023-05-07T16:05:47;5.60;;;1.40;;
56173;SDS011;42058;52.308;20.924;2023-05-07T16:08:13;3.30;;;1.40;;
56173;SDS011;42058;52.308;20.924;2023-05-07T16:10:39;2.70;;;1.60;;
56173;SDS011;42058;52.308;20.924;2023-05-07T16:13:06;2.60;;;1.60;;
56173;SDS011;42058;52.308;20.924;2023-05-07T16:15:32;2.90;;;1.50;;
56173;SDS011;42058;52.308;20.924;2023-05-07T16:17:59;2.60;;;2.20;;
56173;SDS011;42058;52.308;20.924;2023-05-07T16:20:26;2.30;;;1.50;;
56173;SDS011;42058;52.308;20.924;2023-05-07T16:22:55;2.30;;;1.80;;
56173;SDS011;42058;52.308;20.924;2023-05-07T16:25:23;6.10;;;3.90;;
56173;SDS011;42058;52.308;20.924;2023-05-07T16:27:51;2.70;;;2.30;;
56173;SDS011;42058;52.308;20.924;2023-05-07T16:30:18;3.20;;;2.00;;
56173;SDS011;42058;52.308;20.924;2023-05-07T16:32:45;1.70;;;1.60;;
56173;SDS011;42058;52.308;20.924;2023-05-07T16:35:11;2.60;;;1.80;;
56173;SDS011;42058;52.308;20.924;2023-05-07T16:37:41;5.80;;;1.50;;
56173;SDS011;42058;52.308;20.924;2023-05-07T16:40:07;2.40;;;1.20;;
56173;SDS011;42058;52.308;20.924;2023-05-07T16:42:34;2.20;;;1.50;;
56173;SDS011;42058;52.308;20.924;2023-05-07T16:45:02;4.70;;;1.20;;
56173;SDS011;42058;52.308;20.924;2023-05-07T16:47:31;2.60;;;1.90;;
56173;SDS011;42058;52.308;20.924;2023-05-07T16:49:58;5.40;;;1.80;;
56173;SDS011;42058;52.308;20.924;2023-05-07T16:52:26;1.90;;;1.40;;
56173;SDS011;42058;52.308;20.924;2023-05-07T16:54:54;3.40;;;1.60;;
56173;SDS011;42058;52.308;20.924;2023-05-07T16:57:26;1.50;;;1.30;;
56173;SDS011;42058;52.308;20.924;2023-05-07T16:59:54;6.40;;;1.40;;
56173;SDS011;42058;52.308;20.924;2023-05-07T17:02:21;2.60;;;1.50;;
56173;SDS011;42058;52.308;20.924;2023-05-07T17:04:48;5.30;;;1.30;;
56173;SDS011;42058;52.308;20.924;2023-05-07T17:07:14;2.60;;;1.70;;
56173;SDS011;42058;52.308;20.924;2023-05-07T17:09:41;2.70;;;1.30;;
56173;SDS011;42058;52.308;20.924;2023-05-07T17:12:08;1.30;;;1.20;;
56173;SDS011;42058;52.308;20.924;2023-05-07T17:14:34;2.10;;;1.40;;
56173;SDS011;42058;52.308;20.924;2023-05-07T17:17:00;1.40;;;1.30;;
56173;SDS011;42058;52.308;20.924;2023-05-07T17:19:27;2.10;;;1.80;;
56173;SDS011;42058;52.308;20.924;2023-05-07T17:21:53;1.60;;;1.50;;
56173;SDS011;42058;52.308;20.924;2023-05-07T17:24:19;2.30;;;1.50;;
56173;SDS011;42058;52.308;20.924;2023-05-07T17:26:49;1.70;;;1.50;;
56173;SDS011;42058;52.308;20.924;2023-05-07T17:29:15;4.10;;;2.00;;
56173;SDS011;42058;52.308;20.924;2023-05-07T17:31:42;3.00;;;1.80;;
56173;SDS011;42058;52.308;20.924;2023-05-07T17:34:08;2.80;;;1.60;;
56173;SDS011;42058;52.308;20.924;2023-05-07T17:36:35;1.90;;;1.40;;
56173;SDS011;42058;52.308;20.924;2023-05-07T17:39:02;39.90;;;23.30;;
56173;SDS011;42058;52.308;20.924;2023-05-07T17:41:29;18.30;;;6.30;;
56173;SDS011;42058;52.308;20.924;2023-05-07T17:43:55;14.00;;;8.40;;
56173;SDS011;42058;52.308;20.924;2023-05-07T17:46:22;12.10;;;6.50;;
56173;SDS011;42058;52.308;20.924;2023-05-07T17:48:48;7.90;;;4.30;;
56173;SDS011;42058;52.308;20.924;2023-05-07T17:51:15;8.00;;;2.60;;
56173;SDS011;42058;52.308;20.924;2023-05-07T17:53:41;4.60;;;2.40;;
56173;SDS011;42058;52.308;20.924;2023-05-07T17:56:08;3.10;;;1.90;;
56173;SDS011;42058;52.308;20.924;2023-05-07T17:58:34;3.70;;;2.20;;
56173;SDS011;42058;52.308;20.924;2023-05-07T18:01:21;2.80;;;1.80;;
56173;SDS011;42058;52.308;20.924;2023-05-07T18:03:48;3.60;;;1.80;;
56173;SDS011;42058;52.308;20.924;2023-05-07T18:06:17;2.80;;;2.20;;
56173;SDS011;42058;52.308;20.924;2023-05-07T18:08:45;2.70;;;1.90;;
56173;SDS011;42058;52.308;20.924;2023-05-07T18:11:12;11.60;;;2.90;;
56173;SDS011;42058;52.308;20.924;2023-05-07T18:13:39;3.50;;;2.20;;
56173;SDS011;42058;52.308;20.924;2023-05-07T18:16:05;3.00;;;2.30;;
56173;SDS011;42058;52.308;20.924;2023-05-07T18:18:32;3.70;;;2.20;;
56173;SDS011;42058;52.308;20.924;2023-05-07T18:21:00;2.90;;;2.40;;
56173;SDS011;42058;52.308;20.924;2023-05-07T18:23:27;6.50;;;2.50;;
56173;SDS011;42058;52.308;20.924;2023-05-07T18:25:53;4.60;;;2.70;;
56173;SDS011;42058;52.308;20.924;2023-05-07T18:28:20;4.10;;;3.00;;
56173;SDS011;42058;52.308;20.924;2023-05-07T18:30:46;2.90;;;2.00;;
56173;SDS011;42058;52.308;20.924;2023-05-07T18:33:13;3.20;;;2.20;;
56173;SDS011;42058;52.308;20.924;2023-05-07T18:35:39;5.50;;;2.60;;
56173;SDS011;42058;52.308;20.924;2023-05-07T18:38:05;3.40;;;2.30;;
56173;SDS011;42058;52.308;20.924;2023-05-07T18:40:31;8.10;;;2.10;;
56173;SDS011;42058;52.308;20.924;2023-05-07T18:42:58;3.40;;;2.30;;
56173;SDS011;42058;52.308;20.924;2023-05-07T18:45:34;6.10;;;2.20;;
56173;SDS011;42058;52.308;20.924;2023-05-07T18:48:00;3.40;;;2.30;;
56173;SDS011;42058;52.308;20.924;2023-05-07T18:50:27;4.90;;;2.10;;
56173;SDS011;42058;52.308;20.924;2023-05-07T18:52:53;5.20;;;2.40;;
56173;SDS011;42058;52.308;20.924;2023-05-07T18:55:19;4.40;;;2.70;;
56173;SDS011;42058;52.308;20.924;2023-05-07T18:57:47;4.00;;;2.70;;
56173;SDS011;42058;52.308;20.924;2023-05-07T19:00:14;4.40;;;2.90;;
56173;SDS011;42058;52.308;20.924;2023-05-07T19:02:41;4.70;;;2.80;;
56173;SDS011;42058;52.308;20.924;2023-05-07T19:05:07;4.30;;;2.50;;
56173;SDS011;42058;52.308;20.924;2023-05-07T19:07:34;3.40;;;2.80;;
56173;SDS011;42058;52.308;20.924;2023-05-07T19:10:00;4.80;;;2.70;;
56173;SDS011;42058;52.308;20.924;2023-05-07T19:12:32;4.30;;;3.00;;
56173;SDS011;42058;52.308;20.924;2023-05-07T19:14:58;10.10;;;2.70;;
56173;SDS011;42058;52.308;20.924;2023-05-07T19:17:24;5.50;;;2.60;;
56173;SDS011;42058;52.308;20.924;2023-05-07T19:19:50;5.70;;;2.90;;
56173;SDS011;42058;52.308;20.924;2023-05-07T19:22:17;5.10;;;2.70;;
56173;SDS011;42058;52.308;20.924;2023-05-07T19:24:43;4.10;;;3.20;;
56173;SDS011;42058;52.308;20.924;2023-05-07T19:27:09;6.90;;;3.70;;
56173;SDS011;42058;52.308;20.924;2023-05-07T19:29:36;6.90;;;3.30;;
56173;SDS011;42058;52.308;20.924;2023-05-07T19:32:02;4.80;;;3.20;;
56173;SDS011;42058;52.308;20.924;2023-05-07T19:34:29;6.20;;;3.30;;
56173;SDS011;42058;52.308;20.924;2023-05-07T19:36:55;5.10;;;3.10;;
56173;SDS011;42058;52.308;20.924;2023-05-07T19:39:22;4.30;;;2.80;;
56173;SDS011;42058;52.308;20.924;2023-05-07T19:41:48;5.80;;;2.60;;
56173;SDS011;42058;52.308;20.924;2023-05-07T19:44:15;6.60;;;2.90;;
56173;SDS011;42058;52.308;20.924;2023-05-07T19:46:41;4.80;;;2.60;;
56173;SDS011;42058;52.308;20.924;2023-05-07T19:49:10;5.20;;;2.80;;
56173;SDS011;42058;52.308;20.924;2023-05-07T19:51:38;5.50;;;3.10;;
56173;SDS011;42058;52.308;20.924;2023-05-07T19:54:05;5.20;;;3.20;;
56173;SDS011;42058;52.308;20.924;2023-05-07T19:56:31;5.20;;;2.70;;
56173;SDS011;42058;52.308;20.924;2023-05-07T19:58:57;4.80;;;2.90;;
56173;SDS011;42058;52.308;20.924;2023-05-07T20:01:24;4.40;;;2.80;;
56173;SDS011;42058;52.308;20.924;2023-05-07T20:03:50;5.90;;;3.10;;
56173;SDS011;42058;52.308;20.924;2023-05-07T20:06:17;3.60;;;2.30;;
56173;SDS011;42058;52.308;20.924;2023-05-07T20:08:43;8.40;;;3.20;;
56173;SDS011;42058;52.308;20.924;2023-05-07T20:11:10;5.80;;;3.40;;
56173;SDS011;42058;52.308;20.924;2023-05-07T20:13:38;6.80;;;3.70;;
56173;SDS011;42058;52.308;20.924;2023-05-07T20:16:04;3.60;;;2.80;;
56173;SDS011;42058;52.308;20.924;2023-05-07T20:18:31;6.70;;;2.90;;
56173;SDS011;42058;52.308;20.924;2023-05-07T20:20:57;5.20;;;3.00;;
56173;SDS011;42058;52.308;20.924;2023-05-07T20:23:24;3.70;;;2.80;;
56173;SDS011;42058;52.308;20.924;2023-05-07T20:25:50;5.60;;;2.80;;
56173;SDS011;42058;52.308;20.924;2023-05-07T20:28:17;4.30;;;2.70;;
56173;SDS011;42058;52.308;20.924;2023-05-07T20:30:44;7.40;;;2.90;;
56173;SDS011;42058;52.308;20.924;2023-05-07T20:33:11;5.20;;;3.30;;
56173;SDS011;42058;52.308;20.924;2023-05-07T20:35:37;7.20;;;3.50;;
56173;SDS011;42058;52.308;20.924;2023-05-07T20:38:04;4.00;;;3.00;;
56173;SDS011;42058;52.308;20.924;2023-05-07T20:40:30;4.40;;;2.90;;
56173;SDS011;42058;52.308;20.924;2023-05-07T20:42:59;5.20;;;3.40;;
56173;SDS011;42058;52.308;20.924;2023-05-07T20:45:27;5.40;;;3.60;;
56173;SDS011;42058;52.308;20.924;2023-05-07T20:47:53;3.70;;;2.90;;
56173;SDS011;42058;52.308;20.924;2023-05-07T20:50:23;6.30;;;3.90;;
56173;SDS011;42058;52.308;20.924;2023-05-07T20:52:51;7.30;;;5.20;;
56173;SDS011;42058;52.308;20.924;2023-05-07T20:55:18;11.00;;;5.80;;
56173;SDS011;42058;52.308;20.924;2023-05-07T20:57:44;10.90;;;5.80;;
56173;SDS011;42058;52.308;20.924;2023-05-07T21:00:10;9.60;;;4.40;;
56173;SDS011;42058;52.308;20.924;2023-05-07T21:02:37;7.00;;;4.10;;
56173;SDS011;42058;52.308;20.924;2023-05-07T21:05:04;8.70;;;3.60;;
56173;SDS011;42058;52.308;20.924;2023-05-07T21:07:31;6.30;;;3.10;;
56173;SDS011;42058;52.308;20.924;2023-05-07T21:09:57;7.60;;;3.70;;
56173;SDS011;42058;52.308;20.924;2023-05-07T21:12:23;8.30;;;3.40;;
56173;SDS011;42058;52.308;20.924;2023-05-07T21:14:49;4.40;;;3.20;;
56173;SDS011;42058;52.308;20.924;2023-05-07T21:17:16;7.50;;;3.30;;
56173;SDS011;42058;52.308;20.924;2023-05-07T21:19:42;5.80;;;3.40;;
56173;SDS011;42058;52.308;20.924;2023-05-07T21:22:09;9.10;;;3.90;;
56173;SDS011;42058;52.308;20.924;2023-05-07T21:24:35;5.30;;;3.70;;
56173;SDS011;42058;52.308;20.924;2023-05-07T21:27:01;8.50;;;3.80;;
56173;SDS011;42058;52.308;20.924;2023-05-07T21:29:29;7.30;;;4.00;;
56173;SDS011;42058;52.308;20.924;2023-05-07T21:31:55;9.70;;;4.70;;
56173;SDS011;42058;52.308;20.924;2023-05-07T21:34:22;12.60;;;4.70;;
56173;SDS011;42058;52.308;20.924;2023-05-07T21:36:48;8.70;;;4.60;;
56173;SDS011;42058;52.308;20.924;2023-05-07T21:39:15;12.50;;;5.30;;
56173;SDS011;42058;52.308;20.924;2023-05-07T21:41:41;10.60;;;5.90;;
56173;SDS011;42058;52.308;20.924;2023-05-07T21:44:08;15.30;;;6.40;;
56173;SDS011;42058;52.308;20.924;2023-05-07T21:46:36;13.60;;;6.10;;
56173;SDS011;42058;52.308;20.924;2023-05-07T21:49:02;16.60;;;7.40;;
56173;SDS011;42058;52.308;20.924;2023-05-07T21:51:28;20.20;;;8.10;;
56173;SDS011;42058;52.308;20.924;2023-05-07T21:53:55;18.70;;;9.90;;
56173;SDS011;42058;52.308;20.924;2023-05-07T21:56:21;26.00;;;11.30;;
56173;SDS011;42058;52.308;20.924;2023-05-07T21:58:47;23.50;;;10.70;;
56173;SDS011;42058;52.308;20.924;2023-05-07T22:01:14;25.20;;;12.60;;
56173;SDS011;42058;52.308;20.924;2023-05-07T22:03:40;29.40;;;13.60;;
56173;SDS011;42058;52.308;20.924;2023-05-07T22:06:07;33.00;;;15.10;;
56173;SDS011;42058;52.308;20.924;2023-05-07T22:08:33;35.50;;;15.90;;
56173;SDS011;42058;52.308;20.924;2023-05-07T22:10:59;33.30;;;15.20;;
56173;SDS011;42058;52.308;20.924;2023-05-07T22:13:26;36.40;;;15.60;;
56173;SDS011;42058;52.308;20.924;2023-05-07T22:15:53;30.10;;;13.90;;
56173;SDS011;42058;52.308;20.924;2023-05-07T22:18:24;28.40;;;12.80;;
56173;SDS011;42058;52.308;20.924;2023-05-07T22:20:51;23.70;;;11.50;;
56173;SDS011;42058;52.308;20.924;2023-05-07T22:23:17;28.10;;;11.80;;
56173;SDS011;42058;52.308;20.924;2023-05-07T22:25:44;27.80;;;12.60;;
56173;SDS011;42058;52.308;20.924;2023-05-07T22:28:10;24.20;;;11.00;;
56173;SDS011;42058;52.308;20.924;2023-05-07T22:30:37;24.40;;;11.70;;
56173;SDS011;42058;52.308;20.924;2023-05-07T22:33:03;26.90;;;11.70;;
56173;SDS011;42058;52.308;20.924;2023-05-07T22:35:29;26.30;;;11.40;;
56173;SDS011;42058;52.308;20.924;2023-05-07T22:37:56;29.70;;;12.00;;
56173;SDS011;42058;52.308;20.924;2023-05-07T22:40:23;21.40;;;10.30;;
56173;SDS011;42058;52.308;20.924;2023-05-07T22:42:49;20.30;;;9.00;;
56173;SDS011;42058;52.308;20.924;2023-05-07T22:45:16;20.50;;;7.80;;
56173;SDS011;42058;52.308;20.924;2023-05-07T22:47:42;18.70;;;7.90;;
56173;SDS011;42058;52.308;20.924;2023-05-07T22:50:09;18.10;;;8.30;;
56173;SDS011;42058;52.308;20.924;2023-05-07T22:52:38;21.20;;;8.90;;
56173;SDS011;42058;52.308;20.924;2023-05-07T22:55:04;15.50;;;7.30;;
56173;SDS011;42058;52.308;20.924;2023-05-07T22:57:31;15.00;;;7.70;;
56173;SDS011;42058;52.308;20.924;2023-05-07T22:59:57;14.10;;;7.60;;
56173;SDS011;42058;52.308;20.924;2023-05-07T23:02:23;14.80;;;7.00;;
56173;SDS011;42058;52.308;20.924;2023-05-07T23:04:52;15.30;;;7.50;;
56173;SDS011;42058;52.308;20.924;2023-05-07T23:07:18;11.90;;;6.40;;
56173;SDS011;42058;52.308;20.924;2023-05-07T23:09:44;13.70;;;7.80;;
56173;SDS011;42058;52.308;20.924;2023-05-07T23:12:11;16.40;;;8.70;;
56173;SDS011;42058;52.308;20.924;2023-05-07T23:14:37;17.90;;;8.80;;
56173;SDS011;42058;52.308;20.924;2023-05-07T23:17:03;16.70;;;8.60;;
56173;SDS011;42058;52.308;20.924;2023-05-07T23:19:30;15.40;;;8.50;;
56173;SDS011;42058;52.308;20.924;2023-05-07T23:21:56;19.30;;;8.90;;
56173;SDS011;42058;52.308;20.924;2023-05-07T23:24:22;15.40;;;8.80;;
56173;SDS011;42058;52.308;20.924;2023-05-07T23:26:49;16.40;;;8.70;;
56173;SDS011;42058;52.308;20.924;2023-05-07T23:29:15;18.20;;;9.50;;
56173;SDS011;42058;52.308;20.924;2023-05-07T23:31:41;17.00;;;8.10;;
56173;SDS011;42058;52.308;20.924;2023-05-07T23:34:08;15.70;;;8.70;;
56173;SDS011;42058;52.308;20.924;2023-05-07T23:36:34;17.00;;;8.80;;
56173;SDS011;42058;52.308;20.924;2023-05-07T23:39:00;16.90;;;9.20;;
56173;SDS011;42058;52.308;20.924;2023-05-07T23:41:27;15.20;;;8.40;;
56173;SDS011;42058;52.308;20.924;2023-05-07T23:43:53;13.20;;;7.60;;
56173;SDS011;42058;52.308;20.924;2023-05-07T23:46:19;12.80;;;7.70;;
56173;SDS011;42058;52.308;20.924;2023-05-07T23:48:46;15.50;;;7.90;;
56173;SDS011;42058;52.308;20.924;2023-05-07T23:51:12;15.90;;;8.10;;
56173;SDS011;42058;52.308;20.924;2023-05-07T23:53:39;19.40;;;8.20;;
56173;SDS011;42058;52.308;20.924;2023-05-07T23:56:05;14.00;;;6.90;;
56173;SDS011;42058;52.308;20.924;2023-05-07T23:58:32;16.10;;;7.90;;
